^^
Datos históricos de la estación: Murcia-Puente Tocinos
Diario Informe para Noviembre 24, 2019 Unidades:  Métrico    Ingés   Ambas
Diario Semanal Mensual Anual
  Máxima: Mínima: Promedio:
Temperatura: 16.4 °C 10.1 °C 13.8 °C
Punto de rocio: 3.7 °C 1.8 °C 2.7 °C
Humedad: 63% 38.1% 48%
Velocidad viento: 21.7km/h 0km/h 10.8km/h
Racha viento: 46.7km/h - -
Viento- - OSO
Presión: 1014.7 hPa 1008.8 hPa -
Precipitación: 0.0 mm    
 
 
Tabla de datos para Noviembre 24, 2019
Hora Temperatura Punto de rocio Presión Viento Velocidad viento Racha viento Humedad Intensidad lluvia(por hora) Nubes
00:04 14.1 °C 2.3 °C 1008.8 hPa SSO 12.1 km/h 24.1 km/h 44.9% 0.0 mm
00:09 14.1 °C 2 °C 1008.9 hPa SSO 13 km/h 24.1 km/h 44% 0.0 mm
00:14 14.1 °C 2 °C 1008.9 hPa SSO 13.5 km/h 24.1 km/h 44% 0.0 mm
00:19 14 °C 2.2 °C 1008.9 hPa SSO 13.7 km/h 26.2 km/h 44.8% 0.0 mm
00:24 14.2 °C 2.3 °C 1009.4 hPa SSO 13.9 km/h 29.6 km/h 44.8% 0.0 mm
00:29 14.4 °C 2.3 °C 1009.4 hPa SSO 14 km/h 32.3 km/h 44% 0.0 mm
00:34 14.7 °C 2.3 °C 1009.4 hPa SSO 16.9 km/h 33.8 km/h 43.4% 0.0 mm
00:39 14.7 °C 2.2 °C 1009.5 hPa SO 18.4 km/h 33.8 km/h 43% 0.0 mm
00:44 14.6 °C 2.2 °C 1009.5 hPa SO 14.7 km/h 22.2 km/h 43% 0.0 mm
00:49 14.6 °C 2.3 °C 1009.5 hPa SO 13 km/h 29.8 km/h 43.6% 0.0 mm
00:54 14.4 °C 2.3 °C 1009.7 hPa SO 13 km/h 30.6 km/h 44% 0.0 mm
00:59 14.4 °C 2.3 °C 1009.7 hPa SO 13 km/h 29 km/h 44% 0.0 mm
01:04 14.4 °C 2.3 °C 1009.7 hPa SO 13.7 km/h 29.6 km/h 44% 0.0 mm
01:09 14.3 °C 2.2 °C 1009.8 hPa OSO 14 km/h 29 km/h 44% 0.0 mm
01:14 14.3 °C 2.2 °C 1009.8 hPa OSO 14 km/h 31.5 km/h 44% 0.0 mm
01:19 14.3 °C 2.2 °C 1009.8 hPa OSO 14 km/h 32.2 km/h 44% 0.0 mm
01:24 14.3 °C 2.3 °C 1009.8 hPa OSO 15.6 km/h 30.6 km/h 44.5% 0.0 mm
01:29 14.1 °C 2.4 °C 1009.8 hPa OSO 16.4 km/h 27.8 km/h 45% 0.0 mm
01:34 14.1 °C 2.3 °C 1009.8 hPa OSO 14.8 km/h 28.2 km/h 45% 0.0 mm
01:39 14 °C 2.2 °C 1009.8 hPa OSO 14 km/h 27.8 km/h 45% 0.0 mm
01:44 14 °C 2.2 °C 1009.6 hPa OSO 15.4 km/h 27.4 km/h 45% 0.0 mm
01:49 13.9 °C 2.2 °C 1009.6 hPa OSO 16.1 km/h 25.9 km/h 45% 0.0 mm
01:54 13.9 °C 2.2 °C 1009.6 hPa OSO 14.7 km/h 22.5 km/h 45% 0.0 mm
01:59 13.8 °C 2 °C 1009.6 hPa OSO 14 km/h 20.9 km/h 45% 0.0 mm
02:04 13.6 °C 2.1 °C 1009.6 hPa OSO 12 km/h 20.9 km/h 45.7% 0.0 mm
02:09 13.3 °C 2 °C 1009.7 hPa Oeste 11.1 km/h 20.9 km/h 46.2% 0.0 mm
02:14 13.2 °C 2.1 °C 1009.7 hPa Oeste 10.6 km/h 19.3 km/h 47% 0.0 mm
02:19 13 °C 1.9 °C 1009.7 hPa Oeste 10.3 km/h 20.9 km/h 47% 0.0 mm
02:24 12.9 °C 1.8 °C 1009.8 hPa Oeste 10.3 km/h 20.9 km/h 47% 0.0 mm
02:29 12.9 °C 1.8 °C 1009.8 hPa OSO 10.3 km/h 17.7 km/h 47% 0.0 mm
02:34 12.9 °C 1.8 °C 1009.8 hPa SSO 9.8 km/h 16.1 km/h 47% 0.0 mm
02:39 12.9 °C 2 °C 1009.8 hPa SSE 9.5 km/h 12.9 km/h 47.6% 0.0 mm
02:44 12.3 °C 2.2 °C 1009.8 hPa SSE 7.8 km/h 13 km/h 50.1% 0.0 mm
02:49 11.6 °C 2.2 °C 1009.8 hPa SE 6.9 km/h 13 km/h 52.5% 0.0 mm
02:54 11.1 °C 2.2 °C 1009.9 hPa SE 6.9 km/h 13.7 km/h 54.5% 0.0 mm
02:59 10.8 °C 2.1 °C 1009.9 hPa SSE 6.9 km/h 14.8 km/h 55% 0.0 mm
03:04 10.8 °C 2.3 °C 1009.9 hPa SE 8 km/h 16.7 km/h 55.5% 0.0 mm
03:09 10.8 °C 2.4 °C 1010.1 hPa SE 8.4 km/h 16.1 km/h 56% 0.0 mm
03:14 10.8 °C 2.3 °C 1010.1 hPa SSE 9.7 km/h 16.7 km/h 55.4% 0.0 mm
03:19 10.9 °C 2.2 °C 1010.1 hPa SSE 10.3 km/h 16.1 km/h 55% 0.0 mm
03:24 11.1 °C 2.4 °C 1010.1 hPa Sur 9.2 km/h 14.5 km/h 55% 0.0 mm
03:29 11.1 °C 2.4 °C 1010.1 hPa Sur 8.7 km/h 11.3 km/h 55% 0.0 mm
03:34 11.1 °C 2.4 °C 1010.1 hPa SSE 6 km/h 8 km/h 55% 0.0 mm
03:39 11.1 °C 2.4 °C 1010.2 hPa SSE 4.7 km/h 8 km/h 55% 0.0 mm
03:44 11 °C 2.4 °C 1010.2 hPa Sur 4.9 km/h 8.4 km/h 55.4% 0.0 mm
03:49 11 °C 2.4 °C 1010.2 hPa SO 5 km/h 13.7 km/h 55.3% 0.0 mm
03:54 11.5 °C 2.2 °C 1010.2 hPa OSO 6.3 km/h 20.9 km/h 53% 0.0 mm
03:59 12.3 °C 2.2 °C 1010.1 hPa OSO 6.9 km/h 26.2 km/h 49.9% 0.0 mm
04:04 12.9 °C 2.1 °C 1010.1 hPa OSO 10.6 km/h 27.8 km/h 47.7% 0.0 mm
04:09 13.2 °C 2.1 °C 1010.1 hPa OSO 12.2 km/h 27.4 km/h 47% 0.0 mm
04:14 13.2 °C 2.1 °C 1010.0 hPa OSO 12 km/h 24.5 km/h 47% 0.0 mm
04:19 13.2 °C 2.1 °C 1010.0 hPa SO 11.9 km/h 24.1 km/h 47% 0.0 mm
04:24 13.2 °C 2.1 °C 1010.1 hPa OSO 11.4 km/h 28.2 km/h 47% 0.0 mm
04:29 13.2 °C 1.8 °C 1010.1 hPa SO 11.1 km/h 27.4 km/h 46% 0.0 mm
04:34 13.2 °C 1.8 °C 1010.1 hPa OSO 12.9 km/h 25.9 km/h 46% 0.0 mm
04:39 13.2 °C 1.8 °C 1010.2 hPa OSO 13.7 km/h 25.7 km/h 46% 0.0 mm
04:44 13.2 °C 2.1 °C 1010.2 hPa OSO 13.7 km/h 24.1 km/h 46.8% 0.0 mm
04:49 13.2 °C 2.1 °C 1010.2 hPa OSO 13.7 km/h 22.5 km/h 47% 0.0 mm
04:54 13.1 °C 2.1 °C 1010.5 hPa OSO 12.7 km/h 22.5 km/h 47% 0.0 mm
04:59 13 °C 1.9 °C 1010.5 hPa SO 12.2 km/h 25.9 km/h 47% 0.0 mm
05:04 12.9 °C 2.1 °C 1010.5 hPa OSO 12.8 km/h 25.9 km/h 47.7% 0.0 mm
05:09 12.8 °C 2.1 °C 1010.7 hPa OSO 13 km/h 22.5 km/h 48% 0.0 mm
05:14 12.8 °C 2.1 °C 1010.7 hPa Sur 10.6 km/h 14.5 km/h 48.4% 0.0 mm
05:19 12.2 °C 2.1 °C 1010.7 hPa Sur 9.5 km/h 12.9 km/h 50.2% 0.0 mm
05:24 11.6 °C 2.2 °C 1010.7 hPa Sur 8.2 km/h 11.3 km/h 52.3% 0.0 mm
05:29 11.3 °C 2.1 °C 1010.7 hPa Sur 7.6 km/h 11.3 km/h 53.2% 0.0 mm
05:34 11.3 °C 2.3 °C 1010.7 hPa Sur 7.1 km/h 12.2 km/h 54% 0.0 mm
05:39 11.3 °C 2.1 °C 1010.9 hPa Sur 6.9 km/h 13 km/h 53% 0.0 mm
05:44 11.6 °C 2.2 °C 1010.9 hPa Sur 7.4 km/h 13.7 km/h 52.5% 0.0 mm
05:49 11.8 °C 2.2 °C 1010.9 hPa Sur 7.6 km/h 14.5 km/h 52% 0.0 mm
05:54 11.8 °C 2.3 °C 1011.2 hPa Sur 8.1 km/h 14.8 km/h 51.9% 0.0 mm
05:59 12 °C 2.1 °C 1011.2 hPa SO 8.4 km/h 14.5 km/h 51% 0.0 mm
06:04 12.1 °C 2.3 °C 1011.2 hPa SSO 7.8 km/h 16.7 km/h 51% 0.0 mm
06:09 12.1 °C 2.3 °C 1011.3 hPa SO 7.6 km/h 16.1 km/h 51% 0.0 mm
06:14 12.1 °C 2.3 °C 1011.3 hPa OSO 7.1 km/h 14.5 km/h 51% 0.0 mm
06:19 12.1 °C 2.3 °C 1011.3 hPa OSO 6.9 km/h 18.5 km/h 51% 0.0 mm
06:24 12.1 °C 2.4 °C 1011.3 hPa SO 7.4 km/h 19.3 km/h 51.4% 0.0 mm
06:29 12 °C 2.4 °C 1011.2 hPa OSO 7.6 km/h 13.7 km/h 52% 0.0 mm
06:34 11.9 °C 2.3 °C 1011.2 hPa OSO 7.6 km/h 14.5 km/h 52% 0.0 mm
06:39 11.8 °C 2.4 °C 1011.4 hPa OSO 7.6 km/h 11.9 km/h 52.6% 0.0 mm
06:44 11.7 °C 2.5 °C 1011.4 hPa Oeste 7.1 km/h 13 km/h 53% 0.0 mm
06:49 11.8 °C 2.5 °C 1011.4 hPa OSO 6.9 km/h 12.9 km/h 53% 0.0 mm
06:54 11.8 °C 2.5 °C 1011.4 hPa OSO 7.4 km/h 13 km/h 53% 0.0 mm
06:59 11.8 °C 2.5 °C 1011.4 hPa Oeste 7.6 km/h 13 km/h 53% 0.0 mm
07:04 11.8 °C 2.5 °C 1011.4 hPa Oeste 6.8 km/h 11.3 km/h 53% 0.0 mm
07:09 11.7 °C 2.5 °C 1011.5 hPa Oeste 6.5 km/h 6.4 km/h 53% 0.0 mm
07:14 11.7 °C 2.5 °C 1011.5 hPa Oeste 3.6 km/h 12.2 km/h 53.4% 0.0 mm
07:19 11.6 °C 2.6 °C 1011.5 hPa ONO 2.2 km/h 13 km/h 53.9% 0.0 mm
07:24 11.7 °C 2.5 °C 1011.7 hPa SSO 4.1 km/h 11.3 km/h 53.3% 0.0 mm
07:29 11.8 °C 2.5 °C 1011.7 hPa SE 5 km/h 10 km/h 53% 0.0 mm
07:34 11.8 °C 2.5 °C 1011.7 hPa ESE 5 km/h 9.7 km/h 53.2% 0.0 mm
07:39 11.8 °C 2.6 °C 1012.1 hPa NE 5 km/h 20.4 km/h 53.5% 0.0 mm
07:44 12.2 °C 2.7 °C 1012.1 hPa ONO 7.5 km/h 20.9 km/h 52.1% 0.0 mm
07:49 12.3 °C 2.7 °C 1012.1 hPa NE 8.7 km/h 20.4 km/h 52% 0.0 mm
07:54 12.4 °C 2.8 °C 1012.3 hPa North 8.5 km/h 20.9 km/h 52% 0.0 mm
07:59 12.6 °C 3 °C 1012.3 hPa Oeste 8.4 km/h 22.2 km/h 52% 0.0 mm
08:04 12.3 °C 2.9 °C 1012.3 hPa ONO 9.2 km/h 22.5 km/h 52.8% 0.0 mm
08:09 11.9 °C 2.9 °C 1012.5 hPa ONO 9.5 km/h 20.9 km/h 54% 0.0 mm
08:14 12.2 °C 2.9 °C 1012.5 hPa ONO 9.5 km/h 20.9 km/h 53.2% 0.0 mm
08:19 12.2 °C 2.9 °C 1012.5 hPa NO 9.5 km/h 20.9 km/h 53% 0.0 mm
08:24 12.2 °C 3 °C 1012.7 hPa NO 10 km/h 17.2 km/h 53.4% 0.0 mm
08:29 12.1 °C 3.1 °C 1012.7 hPa NO 10.3 km/h 17.7 km/h 54% 0.0 mm
08:34 12.1 °C 3.2 °C 1012.7 hPa NO 9.8 km/h 16.7 km/h 54.5% 0.0 mm
08:39 12.2 °C 3.2 °C 1012.8 hPa NNO 9.5 km/h 16.1 km/h 54.1% 0.0 mm
08:44 12.4 °C 3.2 °C 1012.8 hPa NNO 7.7 km/h 14.5 km/h 53.3% 0.0 mm
08:49 12.8 °C 3.2 °C 1012.8 hPa NNE 6.9 km/h 13.7 km/h 52.1% 0.0 mm
08:54 13 °C 3.1 °C 1013.0 hPa SSO 7.4 km/h 14.5 km/h 51.1% 0.0 mm
08:59 13.1 °C 3.1 °C 1013.0 hPa SO 7.6 km/h 11.3 km/h 51% 0.0 mm
09:04 13.1 °C 3.1 °C 1013.0 hPa NO 6.8 km/h 9.7 km/h 51% 0.0 mm
09:09 13.3 °C 3.1 °C 1013.0 hPa SE 6.5 km/h 11.9 km/h 50.2% 0.0 mm
09:14 13.4 °C 3.2 °C 1013.0 hPa SSO 7.2 km/h 16.7 km/h 50% 0.0 mm
09:19 13.4 °C 3.3 °C 1013.0 hPa NO 7.6 km/h 16.1 km/h 50.4% 0.0 mm
09:24 13.3 °C 3.4 °C 1013.1 hPa NE 6.8 km/h 14.8 km/h 50.9% 0.0 mm
09:29 13.5 °C 3.2 °C 1013.1 hPa Sur 6.5 km/h 20.4 km/h 49.9% 0.0 mm
09:34 13.7 °C 3.2 °C 1013.1 hPa Sur 7.8 km/h 20.9 km/h 49% 0.0 mm
09:39 13.8 °C 3.3 °C 1013.3 hPa SSO 8.4 km/h 16.1 km/h 49% 0.0 mm
09:44 13.8 °C 3.3 °C 1013.3 hPa SSO 9.1 km/h 20.4 km/h 49% 0.0 mm
09:49 13.9 °C 3.1 °C 1013.3 hPa SO 9.5 km/h 20.9 km/h 48.1% 0.0 mm
09:54 14 °C 3.2 °C 1013.3 hPa SSO 10.6 km/h 20.9 km/h 48.2% 0.0 mm
09:59 14.1 °C 3 °C 1013.3 hPa SO 11.1 km/h 17.2 km/h 47.3% 0.0 mm
10:04 14.2 °C 3.1 °C 1013.3 hPa SO 9.2 km/h 25.1 km/h 47.3% 0.0 mm
10:09 14.3 °C 3.1 °C 1013.4 hPa SSO 8.4 km/h 25.9 km/h 47% 0.0 mm
10:14 14.4 °C 3.2 °C 1013.4 hPa OSO 11 km/h 22.5 km/h 47% 0.0 mm
10:19 14.6 °C 3.3 °C 1013.4 hPa OSO 12.2 km/h 29.1 km/h 46.5% 0.0 mm
10:24 14.6 °C 3.1 °C 1013.7 hPa OSO 12.8 km/h 29.6 km/h 46.1% 0.0 mm
10:29 14.7 °C 3.4 °C 1013.7 hPa OSO 13 km/h 31.7 km/h 46.7% 0.0 mm
10:34 14.8 °C 3.3 °C 1013.7 hPa Oeste 14.2 km/h 32.2 km/h 46% 0.0 mm
10:39 14.8 °C 3.3 °C 1013.9 hPa Oeste 14.8 km/h 35.9 km/h 46% 0.0 mm
10:44 14.9 °C 3.4 °C 1013.9 hPa Oeste 15.7 km/h 35.4 km/h 46% 0.0 mm
10:49 14.9 °C 3.2 °C 1013.9 hPa Oeste 16.1 km/h 31.5 km/h 45.5% 0.0 mm
10:54 14.9 °C 3.3 °C 1014.1 hPa OSO 17.4 km/h 32.2 km/h 45.8% 0.0 mm
10:59 14.8 °C 3.3 °C 1014.1 hPa Oeste 18 km/h 33.5 km/h 46% 0.0 mm
11:04 14.8 °C 3 °C 1014.1 hPa Oeste 18 km/h 35.2 km/h 45.2% 0.0 mm
11:09 14.8 °C 3.2 °C 1014.1 hPa Oeste 18 km/h 35.4 km/h 45.6% 0.0 mm
11:14 14.9 °C 3.4 °C 1014.0 hPa Oeste 18.7 km/h 33.8 km/h 45.8% 0.0 mm
11:19 15.1 °C 3.2 °C 1014.0 hPa ONO 19 km/h 33.3 km/h 45% 0.0 mm
11:24 15.2 °C 3.3 °C 1014.0 hPa ONO 18.6 km/h 33.8 km/h 45% 0.0 mm
11:29 15.2 °C 3.3 °C 1014.0 hPa ONO 18.4 km/h 37.8 km/h 45% 0.0 mm
11:34 15.1 °C 3.3 °C 1014.0 hPa ONO 19.4 km/h 39.6 km/h 45.2% 0.0 mm
11:39 15.1 °C 3.2 °C 1014.0 hPa ONO 19.8 km/h 40.2 km/h 45% 0.0 mm
11:44 15.1 °C 3.5 °C 1013.8 hPa ONO 19.8 km/h 33.8 km/h 46% 0.0 mm
11:49 15.1 °C 3.5 °C 1013.8 hPa Oeste 19.8 km/h 28.2 km/h 45.8% 0.0 mm
11:54 15.2 °C 3.5 °C 1014.0 hPa ONO 15.8 km/h 31.7 km/h 45.6% 0.0 mm
11:59 15.1 °C 3.4 °C 1014.0 hPa ONO 14 km/h 32.2 km/h 45.6% 0.0 mm
12:04 15.1 °C 3.4 °C 1014.0 hPa Oeste 15.5 km/h 29 km/h 45.5% 0.0 mm
12:09 15 °C 3.2 °C 1014.0 hPa Oeste 16.1 km/h 35.2 km/h 45.1% 0.0 mm
12:14 15 °C 3.4 °C 1013.7 hPa OSO 15.8 km/h 35.4 km/h 45.8% 0.0 mm
12:19 15.1 °C 3.3 °C 1013.7 hPa Oeste 15.6 km/h 33.3 km/h 45.3% 0.0 mm
12:24 15 °C 3.2 °C 1013.7 hPa OSO 14.5 km/h 33.8 km/h 45% 0.0 mm
12:29 14.9 °C 3.1 °C 1013.4 hPa Oeste 14 km/h 33.5 km/h 45% 0.0 mm
12:34 15 °C 3.1 °C 1013.4 hPa Oeste 18 km/h 37.8 km/h 45% 0.0 mm
12:39 15.2 °C 3.3 °C 1013.4 hPa Oeste 19.8 km/h 37 km/h 45% 0.0 mm
12:44 15.3 °C 3.2 °C 1012.8 hPa ONO 18.6 km/h 37.8 km/h 44.2% 0.0 mm
12:49 15.4 °C 3.2 °C 1012.8 hPa Oeste 18 km/h 37 km/h 44% 0.0 mm
12:54 15.5 °C 3.1 °C 1012.8 hPa Oeste 20.6 km/h 35.4 km/h 43.6% 0.0 mm
12:59 15.6 °C 3.1 °C 1012.4 hPa Oeste 21.7 km/h 37 km/h 43.2% 0.0 mm
13:04 15.7 °C 3.1 °C 1012.4 hPa Oeste 19.8 km/h 40.7 km/h 43% 0.0 mm
13:09 15.7 °C 3.2 °C 1012.7 hPa Oeste 19 km/h 40.2 km/h 43% 0.0 mm
13:14 15.7 °C 3.2 °C 1012.7 hPa Oeste 19.5 km/h 32.2 km/h 43% 0.0 mm
13:19 15.8 °C 3.1 °C 1012.7 hPa Oeste 19.8 km/h 32.2 km/h 42.5% 0.0 mm
13:24 15.9 °C 3.1 °C 1012.7 hPa Oeste 17 km/h 29.6 km/h 42.3% 0.0 mm
13:29 15.9 °C 3.1 °C 1012.5 hPa Oeste 15.6 km/h 30.6 km/h 42.4% 0.0 mm
13:34 16.1 °C 3.3 °C 1012.5 hPa Oeste 15.9 km/h 30.6 km/h 42.3% 0.0 mm
13:39 16.3 °C 3.2 °C 1012.5 hPa Oeste 16.1 km/h 29.1 km/h 41.5% 0.0 mm
13:44 16.3 °C 3 °C 1012.4 hPa Oeste 14.5 km/h 40.7 km/h 41% 0.0 mm
13:49 16.2 °C 3 °C 1012.4 hPa Oeste 13.7 km/h 46.3 km/h 41% 0.0 mm
13:54 16.2 °C 2.9 °C 1012.4 hPa ONO 16.8 km/h 46.7 km/h 41% 0.0 mm
13:59 16.3 °C 3.1 °C 1012.2 hPa Oeste 18.4 km/h 34.3 km/h 41.2% 0.0 mm
14:04 16.3 °C 2.9 °C 1012.2 hPa Oeste 19.4 km/h 34.6 km/h 40.6% 0.0 mm
14:09 16.2 °C 3 °C 1012.3 hPa Oeste 19.8 km/h 35.4 km/h 41% 0.0 mm
14:14 16.2 °C 2.9 °C 1012.3 hPa Oeste 20 km/h 35.4 km/h 41% 0.0 mm
14:19 16.2 °C 3.1 °C 1012.3 hPa ONO 20.1 km/h 33.8 km/h 41.4% 0.0 mm
14:24 16.3 °C 3 °C 1012.3 hPa Oeste 18.7 km/h 29.1 km/h 40.9% 0.0 mm
14:29 16.3 °C 2.9 °C 1012.2 hPa Oeste 18 km/h 29.6 km/h 40.8% 0.0 mm
14:34 16.3 °C 3 °C 1012.2 hPa Oeste 16.7 km/h 29.6 km/h 40.9% 0.0 mm
14:39 16.4 °C 2.8 °C 1012.2 hPa Oeste 16.1 km/h 29 km/h 40% 0.0 mm
14:44 16.3 °C 2.6 °C 1012.2 hPa Oeste 13.3 km/h 28.2 km/h 39.8% 0.0 mm
14:49 16.3 °C 2.6 °C 1012.2 hPa OSO 11.9 km/h 27.8 km/h 39.9% 0.0 mm
14:54 16.3 °C 2.7 °C 1012.3 hPa OSO 12.1 km/h 21.7 km/h 40% 0.0 mm
14:59 16.3 °C 2.6 °C 1012.3 hPa SO 12.2 km/h 26.2 km/h 39.7% 0.0 mm
15:04 16.3 °C 2.7 °C 1012.3 hPa SO 14.7 km/h 27.8 km/h 40% 0.0 mm
15:09 16.3 °C 2.7 °C 1012.3 hPa OSO 15.6 km/h 27.4 km/h 40.1% 0.0 mm
15:14 16.2 °C 2.6 °C 1012.3 hPa OSO 13.9 km/h 23.3 km/h 40.1% 0.0 mm
15:19 16.2 °C 2.6 °C 1012.3 hPa OSO 13 km/h 24.5 km/h 40% 0.0 mm
15:24 16.2 °C 2.6 °C 1012.6 hPa OSO 12.5 km/h 25.1 km/h 40.2% 0.0 mm
15:29 16.2 °C 2.6 °C 1012.6 hPa OSO 12.2 km/h 25.9 km/h 40% 0.0 mm
15:34 16.2 °C 2.5 °C 1012.6 hPa OSO 12.2 km/h 26.2 km/h 40% 0.0 mm
15:39 16.1 °C 2.6 °C 1012.6 hPa Oeste 12.2 km/h 25.9 km/h 40.2% 0.0 mm
15:44 16 °C 2.8 °C 1012.6 hPa OSO 12.8 km/h 27 km/h 41% 0.0 mm
15:49 15.9 °C 2.5 °C 1012.6 hPa OSO 13 km/h 27.8 km/h 40.5% 0.0 mm
15:54 15.9 °C 2.6 °C 1012.6 hPa OSO 14.8 km/h 29.6 km/h 40.9% 0.0 mm
15:59 15.9 °C 2.7 °C 1012.5 hPa OSO 15.6 km/h 29 km/h 41% 0.0 mm
16:04 16 °C 2.7 °C 1012.5 hPa Oeste 15.9 km/h 27.8 km/h 41% 0.0 mm
16:09 16 °C 2.6 °C 1012.5 hPa OSO 16.1 km/h 31.7 km/h 40.4% 0.0 mm
16:14 16.1 °C 2.5 °C 1012.5 hPa OSO 16.1 km/h 32.2 km/h 40% 0.0 mm
16:19 16.2 °C 2.6 °C 1012.5 hPa OSO 16.1 km/h 25.9 km/h 40% 0.0 mm
16:24 16.3 °C 2.6 °C 1012.6 hPa Oeste 14.7 km/h 25.7 km/h 40% 0.0 mm
16:29 16.3 °C 2.7 °C 1012.6 hPa Oeste 14 km/h 29.8 km/h 40% 0.0 mm
16:34 16.4 °C 2.8 °C 1012.6 hPa Oeste 12.6 km/h 30.6 km/h 40% 0.0 mm
16:39 16.4 °C 2.7 °C 1012.6 hPa OSO 11.9 km/h 27 km/h 39.8% 0.0 mm
16:44 16.4 °C 2.4 °C 1012.3 hPa OSO 13.9 km/h 30.6 km/h 39% 0.0 mm
16:49 16.3 °C 2.3 °C 1012.3 hPa OSO 14.8 km/h 30.6 km/h 39% 0.0 mm
16:54 16.3 °C 2.4 °C 1012.3 hPa Oeste 15.7 km/h 28.6 km/h 39.3% 0.0 mm
16:59 16.2 °C 2.6 °C 1012.3 hPa Oeste 16.1 km/h 29 km/h 40% 0.0 mm
17:04 16.2 °C 2.4 °C 1012.3 hPa OSO 13.4 km/h 22.5 km/h 39.4% 0.0 mm
17:09 16.2 °C 2.5 °C 1012.3 hPa Oeste 12.2 km/h 19.3 km/h 39.8% 0.0 mm
17:14 16.2 °C 2.2 °C 1012.3 hPa Oeste 9 km/h 20.1 km/h 39% 0.0 mm
17:19 16.1 °C 1.8 °C 1012.3 hPa OSO 7.6 km/h 20.9 km/h 38.1% 0.0 mm
17:24 16.1 °C 2 °C 1012.4 hPa SSO 9.2 km/h 20.9 km/h 38.6% 0.0 mm
17:29 16 °C 2 °C 1012.4 hPa SSO 10 km/h 14.5 km/h 38.9% 0.0 mm
17:34 16.1 °C 2.3 °C 1012.4 hPa SO 8.3 km/h 13 km/h 39.7% 0.0 mm
17:39 16 °C 2.1 °C 1012.5 hPa SO 7.6 km/h 13 km/h 39.2% 0.0 mm
17:44 15.9 °C 2.5 °C 1012.5 hPa SSO 5.8 km/h 12.9 km/h 40.5% 0.0 mm
17:49 15.8 °C 2.1 °C 1012.5 hPa SO 5 km/h 8 km/h 39.6% 0.0 mm
17:54 15.7 °C 2.7 °C 1012.7 hPa SSO 4.2 km/h 8.4 km/h 41.8% 0.0 mm
17:59 15.6 °C 3.6 °C 1012.7 hPa Sur 3.9 km/h 9.5 km/h 44.7% 0.0 mm
18:04 15.4 °C 3.5 °C 1012.7 hPa SSO 5.2 km/h 9.7 km/h 44.9% 0.0 mm
18:09 15.4 °C 3.6 °C 1013.0 hPa Sur 5.8 km/h 9.7 km/h 45.3% 0.0 mm
18:14 15.3 °C 3.1 °C 1013.0 hPa SO 4 km/h 14.8 km/h 44.2% 0.0 mm
18:19 15.2 °C 2.6 °C 1013.0 hPa SSO 3.2 km/h 16.7 km/h 42.9% 0.0 mm
18:24 15.2 °C 3.5 °C 1013.1 hPa SSE 6.9 km/h 16.1 km/h 45.7% 0.0 mm
18:29 15.1 °C 3.6 °C 1013.1 hPa SSO 8.7 km/h 11.3 km/h 46.1% 0.0 mm
18:34 14.9 °C 3.7 °C 1013.1 hPa SO 6.7 km/h 8 km/h 46.9% 0.0 mm
18:39 14.8 °C 3.6 °C 1013.3 hPa Sur 5.8 km/h 9.5 km/h 47% 0.0 mm
18:44 14.8 °C 3.6 °C 1013.3 hPa SSO 5.8 km/h 9.7 km/h 47% 0.0 mm
18:49 14.7 °C 3.7 °C 1013.3 hPa NO 5.8 km/h 9.7 km/h 47.7% 0.0 mm
18:54 14.4 °C 3.5 °C 1013.4 hPa NO 4 km/h 8 km/h 47.7% 0.0 mm
18:59 14.3 °C 3.6 °C 1013.4 hPa NO 3.2 km/h 7.4 km/h 48.4% 0.0 mm
19:04 14.2 °C 3.5 °C 1013.4 hPa NO 2.5 km/h 8 km/h 48.6% 0.0 mm
19:09 14.1 °C 2.8 °C 1013.6 hPa Oeste 2.2 km/h 9.5 km/h 46.6% 0.0 mm
19:14 14.2 °C 2.7 °C 1013.6 hPa Oeste 3.3 km/h 10 km/h 45.8% 0.0 mm
19:19 14.3 °C 2.5 °C 1013.6 hPa OSO 3.9 km/h 11.1 km/h 45.2% 0.0 mm
19:24 14.2 °C 2.7 °C 1013.8 hPa OSO 5.2 km/h 11.9 km/h 46.1% 0.0 mm
19:29 14.1 °C 2.7 °C 1013.8 hPa ONO 5.8 km/h 19 km/h 46% 0.0 mm
19:34 14.1 °C 2.4 °C 1013.8 hPa ONO 7.7 km/h 19.3 km/h 45.1% 0.0 mm
19:39 14.1 °C 2.3 °C 1013.8 hPa Oeste 8.7 km/h 24.1 km/h 45% 0.0 mm
19:44 14.1 °C 2.3 °C 1013.7 hPa Oeste 10.3 km/h 24.1 km/h 45% 0.0 mm
19:49 13.9 °C 2.4 °C 1013.7 hPa Oeste 11.1 km/h 22.2 km/h 45.8% 0.0 mm
19:54 13.9 °C 2.4 °C 1013.8 hPa Oeste 11.9 km/h 25.9 km/h 45.8% 0.0 mm
19:59 14.2 °C 2.2 °C 1013.8 hPa Oeste 12.2 km/h 25.7 km/h 44.6% 0.0 mm
20:04 14.2 °C 2.3 °C 1013.8 hPa Oeste 12 km/h 22.5 km/h 44.6% 0.0 mm
20:09 14.2 °C 2.2 °C 1013.8 hPa Oeste 11.9 km/h 25.6 km/h 44.4% 0.0 mm
20:14 14.4 °C 2.2 °C 1013.8 hPa ONO 13.1 km/h 25.9 km/h 43.5% 0.0 mm
20:19 14.6 °C 2.1 °C 1013.8 hPa Oeste 13.7 km/h 25.7 km/h 43% 0.0 mm
20:24 14.6 °C 2.2 °C 1013.8 hPa Oeste 13.9 km/h 24.1 km/h 43.1% 0.0 mm
20:29 14.4 °C 2.3 °C 1013.8 hPa ONO 14 km/h 24.1 km/h 44% 0.0 mm
20:34 14.4 °C 2.3 °C 1013.8 hPa ONO 14 km/h 24.1 km/h 44% 0.0 mm
20:39 14.3 °C 2.3 °C 1013.8 hPa ONO 14 km/h 24.5 km/h 44.4% 0.0 mm
20:44 14.1 °C 2.3 °C 1013.8 hPa ONO 13.3 km/h 24.1 km/h 45% 0.0 mm
20:49 13.9 °C 2.3 °C 1013.8 hPa ONO 13 km/h 24.1 km/h 45.6% 0.0 mm
20:54 13.9 °C 2.4 °C 1014.0 hPa ONO 11.2 km/h 20.9 km/h 46% 0.0 mm
20:59 13.7 °C 2.4 °C 1014.0 hPa ONO 10.3 km/h 14.5 km/h 46.3% 0.0 mm
21:04 13.6 °C 2.5 °C 1014.0 hPa ONO 7.9 km/h 11.9 km/h 47% 0.0 mm
21:09 13.4 °C 2.5 °C 1014.0 hPa OSO 6.9 km/h 11.3 km/h 47.4% 0.0 mm
21:14 13.3 °C 2.5 °C 1014.0 hPa SSO 6.2 km/h 11.3 km/h 48% 0.0 mm
21:19 13.1 °C 2.8 °C 1014.0 hPa Sur 5.8 km/h 9.7 km/h 49.6% 0.0 mm
21:24 12.8 °C 3 °C 1014.1 hPa SSO 6.2 km/h 13.7 km/h 51.5% 0.0 mm
21:29 12.5 °C 2.9 °C 1014.1 hPa SSO 6.5 km/h 14.5 km/h 52% 0.0 mm
21:34 12.4 °C 2.9 °C 1014.1 hPa SO 7.2 km/h 12.9 km/h 52.4% 0.0 mm
21:39 12.4 °C 3 °C 1014.1 hPa SO 7.6 km/h 11.3 km/h 52.8% 0.0 mm
21:44 12.4 °C 3.1 °C 1014.1 hPa SO 6.4 km/h 11.3 km/h 53% 0.0 mm
21:49 12.4 °C 3.1 °C 1014.1 hPa OSO 5.8 km/h 9.7 km/h 53% 0.0 mm
21:54 12.3 °C 3 °C 1014.1 hPa OSO 5.2 km/h 8 km/h 53% 0.0 mm
21:59 12.2 °C 3.1 °C 1014.0 hPa OSO 5 km/h 8.4 km/h 53.7% 0.0 mm
22:04 12.1 °C 3.1 °C 1014.0 hPa OSO 4.8 km/h 8 km/h 54.5% 0.0 mm
22:09 11.8 °C 3.2 °C 1014.1 hPa Oeste 4.7 km/h 7.4 km/h 55.3% 0.0 mm
22:14 11.7 °C 3.2 °C 1014.1 hPa ONO 3.4 km/h 8 km/h 56% 0.0 mm
22:19 11.6 °C 3.3 °C 1014.1 hPa ONO 2.9 km/h 3.9 km/h 56.7% 0.0 mm
22:24 11.4 °C 3.2 °C 1014.5 hPa ONO 1 km/h 3.7 km/h 57% 0.0 mm
22:29 11.3 °C 3.4 °C 1014.5 hPa Calm   3.7 km/h 57.9% 0.0 mm
22:34 11.2 °C 3.3 °C 1014.5 hPa Calm   5.8 km/h 58% 0.0 mm
22:39 11.2 °C 3.3 °C 1014.7 hPa Calm   8.4 km/h 58.3% 0.0 mm
22:44 11.2 °C 3.4 °C 1014.7 hPa SSE 3.1 km/h 9.3 km/h 59% 0.0 mm
22:49 11.1 °C 3.4 °C 1014.7 hPa SSE 4.7 km/h 9.7 km/h 59% 0.0 mm
22:54 11.1 °C 3.5 °C 1014.7 hPa SSE 5.4 km/h 11.9 km/h 59.6% 0.0 mm
22:59 10.9 °C 3.5 °C 1014.4 hPa SE 5.8 km/h 11.9 km/h 60% 0.0 mm
23:04 10.8 °C 3.5 °C 1014.4 hPa ESE 7 km/h 13 km/h 60.6% 0.0 mm
23:09 10.4 °C 3.4 °C 1014.4 hPa SE 7.6 km/h 13 km/h 62.1% 0.0 mm
23:14 10.1 °C 3.4 °C 1014.4 hPa SE 8.3 km/h 13 km/h 63% 0.0 mm
23:19 10.2 °C 3.3 °C 1014.4 hPa SSE 8.7 km/h 16.4 km/h 62.3% 0.0 mm
23:24 10.4 °C 3.1 °C 1014.4 hPa SSE 9.6 km/h 16.7 km/h 60.7% 0.0 mm
23:29 10.7 °C 3.1 °C 1014.4 hPa SE 10 km/h 16.1 km/h 59.4% 0.0 mm
23:34 10.8 °C 3 °C 1014.4 hPa SE 9.1 km/h 14.5 km/h 58.9% 0.0 mm
23:39 10.8 °C 3.1 °C 1014.4 hPa SSE 8.7 km/h 11.3 km/h 59% 0.0 mm
23:44 10.7 °C 3 °C 1014.2 hPa SSE 7.5 km/h 13 km/h 59% 0.0 mm
23:49 10.6 °C 3.1 °C 1014.2 hPa SSE 6.9 km/h 14.8 km/h 59.9% 0.0 mm
23:54 10.4 °C 3.1 °C 1014.2 hPa SSE 8.7 km/h 14.5 km/h 60.5% 0.0 mm
23:59 10.3 °C 3.1 °C 1014.1 hPa SSE 9.5 km/h 14.8 km/h 61% 0.0 mm
Murcia-Puente Tocinos, España
Compliments of Weather Underground - 3 mb

La estación de MeteoMurcia.com, publica sus datos en los siguientes proyectos:

Weather Underground PWS IMURCIAP2 Meteoclimatic www.awekas.at

W3Counter
Web Analytics